Latest Weather Observations for Cape Otway

IDV60801

Issued at 8:03 am EDT Wednesday 22 February 2017 (issued every 30 minutes, with the page automatically refreshed every 10 minutes)

About weather observations | Map of weather stations | Latest weather observations for VIC | Other Formats
Station Details ID: 090015 Name: CAPE OTWAY LIGHTHOUSE Lat: -38.86 Lon: 143.51 Height: 82.0 m
Data from the previous 72 hours. | See also: Recent months at Cape Otway
Date/Time
EDT
Temp
°C
App
Temp
°C
Dew
Point
°C
Rel
Hum
%
Delta-T
°C
Wind Press
QNH
hPa
Press
MSL
hPa
Rain since
9am
mm
Dir  Spd
km/h
Gust
km/h
Spd
kts
Gust
kts
22/08:00am 20.5 13.6 4.5 35 7.8 N 30 41 16 22 1013.2 1013.1 -
22/07:30am 19.9 13.3 4.4 36 7.5 N 28 39 15 21 1013.2 1013.1 0.0
22/07:00am 19.2 13.1 4.9 39 6.9 N 26 37 14 20 1013.0 1012.9 0.0
22/06:30am 15.8 11.2 9.7 67 3.2 NNE 24 30 13 16 1013.1 1013.0 0.0
22/06:00am 15.9 11.4 10.0 68 3.1 NE 24 33 13 18 1013.0 1012.9 0.0
22/05:30am 16.1 11.6 11.3 73 2.6 NE 26 33 14 18 1013.3 1013.2 0.0
22/05:00am 15.2 11.1 11.6 79 1.9 NE 24 32 13 17 1013.3 1013.2 0.0
22/04:30am 15.4 10.7 12.0 80 1.9 NE 28 35 15 19 1013.7 1013.6 0.0
22/04:00am 15.6 11.3 12.0 79 2.0 NE 26 35 14 19 1014.1 1014.0 0.0
22/03:30am 15.5 11.2 12.1 80 1.9 NE 26 35 14 19 1014.6 1014.5 0.0
22/03:00am 15.4 11.1 12.2 81 1.7 NE 26 33 14 18 1014.9 1014.8 0.0
22/02:30am 15.6 10.5 12.0 79 2.0 NE 30 44 16 24 1015.3 1015.1 0.0
22/02:00am 15.6 10.1 11.8 78 2.1 NE 32 44 17 24 1015.8 1015.6 0.0
22/01:30am 15.5 10.2 11.3 76 2.3 NE 30 43 16 23 1016.2 1016.0 0.0
22/01:00am 15.5 10.2 11.3 76 2.3 NE 30 48 16 26 1016.5 1016.3 0.0
22/12:53am 15.5 10.2 11.3 76 2.3 NE 30 48 16 26 1016.6 1016.4 0.0
22/12:30am 15.4 10.0 11.0 75 2.4 ENE 30 43 16 23 1016.9 1016.7 0.0
22/12:00am 15.4 9.7 11.0 75 2.3 NE 32 46 17 25 1017.0 1016.8 0.0
 
Date/Time
EDT
Temp
°C
App
Temp
°C
Dew
Point
°C
Rel
Hum
%
Delta-T
°C
Wind Press
QNH
hPa
Press
MSL
hPa
Rain since
9am
mm
Dir  Spd
km/h
Gust
km/h
Spd
kts
Gust
kts
21/11:30pm 15.3 10.3 10.9 75 2.3 ENE 28 43 15 23 1017.6 1017.4 0.0
21/11:00pm 15.2 10.2 10.8 75 2.3 ENE 28 37 15 20 1017.7 1017.5 0.0
21/10:30pm 15.1 10.0 10.7 75 2.3 ENE 28 39 15 21 1017.9 1017.7 0.0
21/10:00pm 15.4 11.1 10.6 73 2.5 E 24 33 13 18 1018.2 1018.0 0.0
21/09:30pm 15.5 11.1 10.5 72 2.6 E 24 33 13 18 1018.3 1018.1 0.0
21/09:00pm 15.5 10.3 10.3 71 2.7 E 28 35 15 19 1018.2 1018.0 0.0
21/08:30pm 15.5 10.7 10.3 71 2.7 E 26 33 14 18 1018.0 1017.8 0.0
21/08:00pm 16.0 12.6 10.5 70 2.9 E 19 28 10 15 1018.1 1017.9 0.0
21/07:30pm 16.2 13.1 10.3 68 3.1 E 17 24 9 13 1018.2 1018.0 0.0
21/07:00pm 16.5 13.3 10.1 66 3.4 E 17 28 9 15 1018.2 1018.0 0.0
21/06:30pm 16.7 13.4 9.6 63 3.7 E 17 28 9 15 1018.3 1018.1 0.0
21/06:00pm 17.1 13.9 10.0 63 3.8 E 17 26 9 14 1018.4 1018.2 0.0
21/05:30pm 17.3 13.5 9.7 61 4.0 E 20 28 11 15 1018.6 1018.4 0.0
21/05:00pm 17.2 13.5 10.1 63 3.8 ESE 20 24 11 13 1018.9 1018.7 0.0
21/04:30pm 17.3 13.7 10.0 62 3.9 ESE 19 24 10 13 1019.3 1019.1 0.0
21/04:00pm 18.0 15.3 10.4 61 4.1 ESE 15 20 8 11 1019.8 1019.6 0.0
21/03:30pm 17.8 15.3 9.7 59 4.3 SE 13 19 7 10 1019.8 1019.6 0.0
21/03:00pm 18.6 17.2 10.9 61 4.2 SE 9 15 5 8 1020.2 1020.0 0.0
21/02:30pm 18.5 17.3 11.6 64 3.8 SSW 9 13 5 7 1020.8 1020.6 0.0
21/02:00pm 18.1 16.9 11.7 66 3.5 SSW 9 15 5 8 1020.9 1020.7 0.0
21/01:30pm 18.9 18.1 12.9 68 3.4 SSW 9 13 5 7 1021.1 1020.9 0.0
21/01:00pm 17.5 16.2 11.3 67 3.4 SSW 9 15 5 8 1021.1 1020.9 0.0
21/12:30pm 17.0 14.9 11.3 69 3.1 SW 13 17 7 9 1021.3 1021.1 0.0
21/12:00pm 16.7 14.9 10.8 68 3.2 SW 11 15 6 8 1021.5 1021.3 0.0
21/11:30am 17.1 16.0 10.5 65 3.5 SSW 7 11 4 6 1021.6 1021.4 0.0
21/11:00am 16.2 14.6 10.1 67 3.2 SW 9 13 5 7 1021.7 1021.5 0.0
21/10:30am 15.8 14.1 9.9 68 3.1 SW 9 13 5 7 1021.5 1021.3 0.0
21/10:00am 15.9 14.3 10.2 69 3.0 SW 9 13 5 7 1021.3 1021.1 0.0
21/09:30am 15.7 13.4 10.5 71 2.8 SW 13 17 7 9 1021.5 1021.3 0.0
21/09:00am 15.4 13.1 10.4 72 2.6 SW 13 17 7 9 1021.2 1021.0 0.2
21/08:30am 15.4 13.5 10.6 73 2.5 SW 11 17 6 9 1021.0 1020.8 0.2
21/08:00am 14.9 12.9 10.3 74 2.4 SSW 11 17 6 9 1020.4 1020.2 0.2
21/07:30am 14.7 12.4 10.3 75 2.3 SW 13 19 7 10 1020.1 1019.9 0.2
21/07:00am 14.7 11.7 10.5 76 2.2 SW 17 22 9 12 1019.8 1019.6 0.2
21/06:30am 14.7 12.0 10.5 76 2.2 SW 15 20 8 11 1019.5 1019.3 0.2
21/06:00am 14.6 11.2 10.6 77 2.1 SW 19 24 10 13 1019.1 1018.9 0.2
21/05:30am 14.5 11.5 10.7 78 2.0 SW 17 22 9 12 1018.8 1018.6 0.2
21/05:00am 14.5 11.5 10.5 77 2.1 SW 17 24 9 13 1018.5 1018.3 0.2
21/04:30am 14.2 10.1 10.2 77 2.1 SW 22 28 12 15 1018.6 1018.4 0.2
21/04:00am 14.6 10.3 10.6 77 2.1 SW 24 32 13 17 1018.5 1018.3 0.2
21/03:30am 14.9 11.0 10.7 76 2.2 WSW 22 32 12 17 1018.4 1018.2 0.2
21/03:00am 14.7 11.0 10.1 74 2.4 WSW 20 28 11 15 1018.3 1018.1 0.2
21/02:30am 14.7 9.9 10.3 75 2.3 SW 26 35 14 19 1018.3 1018.1 0.2
21/02:00am 14.7 10.7 10.3 75 2.3 WSW 22 32 12 17 1018.4 1018.2 0.2
21/01:30am 14.6 10.9 10.2 75 2.3 SW 20 28 11 15 1018.4 1018.2 0.2
21/01:00am 14.8 9.3 10.4 75 2.3 SW 30 37 16 20 1018.6 1018.4 0.2
21/12:30am 14.7 9.5 10.1 74 2.4 WSW 28 41 15 22 1018.6 1018.4 0.2
21/12:00am 14.8 10.7 10.0 73 2.5 WSW 22 32 12 17 1018.5 1018.3 0.2
 
Date/Time
EDT
Temp
°C
App
Temp
°C
Dew
Point
°C
Rel
Hum
%
Delta-T
°C
Wind Press
QNH
hPa
Press
MSL
hPa
Rain since
9am
mm
Dir  Spd
km/h
Gust
km/h
Spd
kts
Gust
kts
20/11:30pm 14.8 10.2 9.8 72 2.6 WSW 24 33 13 18 1018.6 1018.4 0.2
20/11:00pm 14.7 10.1 9.5 71 2.7 WSW 24 32 13 17 1018.3 1018.1 0.2
20/10:30pm 14.5 9.9 9.5 72 2.6 WSW 24 33 13 18 1018.4 1018.2 0.2
20/10:00pm 14.7 9.7 9.5 71 2.7 WSW 26 35 14 19 1018.4 1018.2 0.2
20/09:30pm 14.6 8.7 9.2 70 2.8 SW 30 39 16 21 1018.2 1018.0 0.2
20/09:00pm 14.6 8.8 9.4 71 2.7 SW 30 41 16 22 1017.9 1017.7 0.2
20/08:30pm 14.6 8.8 9.6 72 2.6 WSW 30 43 16 23 1017.5 1017.3 0.2
20/08:00pm 14.9 8.8 9.9 72 2.6 SW 32 41 17 22 1017.0 1016.8 0.2
20/07:30pm 14.9 8.7 9.5 70 2.8 SW 32 43 17 23 1016.6 1016.4 0.2
20/07:00pm 15.1 9.9 10.1 72 2.6 WSW 28 43 15 23 1016.2 1016.0 0.2
20/06:30pm 15.2 9.5 9.8 70 2.8 WSW 30 44 16 24 1016.0 1015.8 0.2
20/06:00pm 15.1 8.4 9.5 69 2.9 SW 35 50 19 27 1015.7 1015.5 0.2
20/05:30pm 15.5 9.0 10.3 71 2.7 SW 35 50 19 27 1015.5 1015.3 0.2
20/05:00pm 15.8 8.5 10.1 69 3.0 WSW 39 52 21 28 1015.2 1015.0 0.2
20/04:30pm 15.7 9.2 10.5 71 2.8 WSW 35 46 19 25 1015.1 1014.9 0.2
20/04:00pm 16.5 10.3 10.1 66 3.4 WSW 33 48 18 26 1014.9 1014.8 0.2
20/03:30pm 16.3 9.5 10.6 69 3.0 WSW 37 48 20 26 1014.8 1014.7 0.2
20/03:00pm 15.9 9.0 11.5 75 2.4 WSW 39 52 21 28 1014.7 1014.6 0.2
20/02:38pm 14.2 7.7 10.4 78 2.0 WSW 35 54 19 29 1014.6 1014.5 0.2
20/02:30pm 14.5 7.7 10.7 78 2.0 WSW 37 54 20 29 1014.6 1014.5 0.2
20/02:18pm 14.8 8.7 10.6 76 2.2 WSW 33 57 18 31 1014.5 1014.4 0.2
20/02:00pm 14.7 9.0 11.1 79 1.9 WSW 32 46 17 25 1014.4 1014.3 0.2
20/01:30pm 14.4 8.0 10.8 79 1.9 SW 35 50 19 27 1014.5 1014.4 0.0
20/01:01pm 14.9 8.8 10.5 75 2.3 WSW 33 59 18 32 1014.3 1014.2 0.0
20/01:00pm 15.0 9.1 10.6 75 2.3 WSW 32 48 17 26 1014.3 1014.2 0.0
20/12:30pm 15.2 8.2 9.8 70 2.8 WSW 37 56 20 30 1014.3 1014.2 0.0
20/12:23pm 15.0 7.9 9.6 70 2.8 WSW 37 56 20 30 1014.2 1014.1 0.0
20/12:00pm 15.5 9.2 9.6 68 3.1 WSW 33 48 18 26 1014.3 1014.2 0.0
20/11:30am 15.3 8.6 9.7 69 2.9 WSW 35 50 19 27 1014.2 1014.1 0.0
20/11:00am 14.7 6.8 9.5 71 2.7 SW 41 54 22 29 1014.2 1014.1 0.0
20/10:40am 14.8 7.7 9.4 70 2.8 WSW 37 56 20 30 1013.9 1013.8 0.0
20/10:30am 15.0 7.9 9.4 69 2.9 SW 37 52 20 28 1013.9 1013.8 0.0
20/10:00am 14.8 8.1 9.6 71 2.7 SW 35 50 19 27 1013.7 1013.6 0.0
20/09:30am 14.5 7.0 9.5 72 2.6 SW 39 57 21 31 1013.3 1013.2 0.0
20/09:29am 14.5 7.0 9.5 72 2.6 SW 39 57 21 31 1013.3 1013.2 0.0
20/09:00am 14.6 6.5 10.0 74 2.4 SW 43 54 23 29 1012.9 1012.8 8.6
20/08:30am 14.1 6.5 10.5 79 1.9 SW 41 50 22 27 1012.5 1012.3 8.6
20/08:17am 13.7 7.2 10.5 81 1.7 SW 35 50 19 27 1012.3 1012.1 8.6
20/08:00am 12.8 8.7 10.0 83 1.4 WSW 22 32 12 17 1012.2 1012.0 8.6
20/07:30am 13.1 6.0 9.5 79 1.8 SW 37 50 20 27 1012.0 1011.8 8.2
20/07:00am 13.7 6.0 10.1 79 1.9 SW 41 54 22 29 1011.5 1011.3 8.2
20/06:50am 13.5 6.5 10.1 80 1.8 SW 37 56 20 30 1011.4 1011.2 8.2
20/06:30am 13.7 5.9 9.9 78 2.0 SSW 41 57 22 31 1011.2 1011.0 8.2
20/06:27am 13.6 6.2 9.8 78 2.0 SW 39 57 21 31 1011.3 1011.1 8.2
20/06:00am 13.5 5.3 10.3 81 1.7 SW 44 56 24 30 1010.9 1010.7 8.2
20/05:30am 13.0 5.8 10.5 85 1.3 SW 39 56 21 30 1010.7 1010.5 8.2
20/05:25am 12.3 6.7 10.0 86 1.2 SW 30 52 16 28 1010.6 1010.4 8.2
20/05:00am 12.4 4.6 9.8 84 1.3 SW 41 52 22 28 1010.7 1010.5 7.4
20/04:30am 12.5 3.5 8.8 78 1.9 SSW 46 65 25 35 1010.4 1010.2 7.0
20/04:05am 13.9 5.5 8.9 72 2.5 SW 43 61 23 33 1010.2 1010.0 6.2
20/04:00am 14.0 5.0 9.0 72 2.5 SW 46 61 25 33 1010.2 1010.0 6.2
20/03:31am 14.1 5.6 9.1 72 2.6 SW 44 65 24 35 1010.0 1009.8 6.2
20/03:30am 14.3 6.0 9.5 73 2.5 SW 43 57 23 31 1010.0 1009.8 6.2
20/03:18am 14.1 5.5 8.9 71 2.6 SW 44 63 24 34 1010.0 1009.8 6.2
20/03:00am 13.8 4.7 8.6 71 2.6 SW 46 59 25 32 1010.1 1009.9 6.2
20/02:46am 14.1 6.1 8.9 71 2.6 SW 41 59 22 32 1010.0 1009.8 6.2
20/02:30am 14.0 5.9 8.8 71 2.6 SW 41 56 22 30 1010.2 1010.0 6.2
20/02:00am 13.9 5.2 8.5 70 2.7 SW 44 56 24 30 1010.1 1009.9 6.2
20/01:30am 14.0 5.3 8.6 70 2.7 SW 44 56 24 30 1010.2 1010.0 6.2
20/01:00am 14.1 5.1 8.9 71 2.6 SW 46 63 25 34 1010.1 1009.9 6.2
20/12:30am 13.5 4.9 8.8 73 2.4 SW 44 59 24 32 1010.0 1009.8 6.0
20/12:11am 13.0 5.5 9.3 78 1.9 SW 39 57 21 31 1010.2 1010.0 6.0
20/12:00am 12.5 5.7 9.1 80 1.7 SW 35 50 19 27 1010.4 1010.2 6.0
 
Date/Time
EDT
Temp
°C
App
Temp
°C
Dew
Point
°C
Rel
Hum
%
Delta-T
°C
Wind Press
QNH
hPa
Press
MSL
hPa
Rain since
9am
mm
Dir  Spd
km/h
Gust
km/h
Spd
kts
Gust
kts
19/11:57pm 12.5 5.7 9.1 80 1.7 SW 35 54 19 29 1010.4 1010.2 5.8
19/11:43pm 13.1 6.0 8.0 71 2.5 SW 35 50 19 27 1010.3 1010.1 5.4
19/11:30pm 13.6 7.1 8.2 70 2.7 SW 32 43 17 23 1010.3 1010.1 5.4
19/11:00pm 13.7 5.8 7.9 68 2.9 SW 39 50 21 27 1010.5 1010.3 5.4
19/10:30pm 13.8 5.5 7.8 67 3.0 SW 41 56 22 30 1010.5 1010.3 5.4
19/10:12pm 13.8 6.0 8.2 69 2.8 SW 39 57 21 31 1010.4 1010.2 5.4
19/10:00pm 13.6 5.3 7.8 68 2.9 SW 41 52 22 28 1010.4 1010.2 5.4
19/09:30pm 13.5 5.2 7.9 69 2.8 SW 41 54 22 29 1010.2 1010.0 5.4
19/09:00pm 13.4 6.6 7.8 69 2.8 WSW 33 44 18 24 1009.9 1009.7 5.4
19/08:43pm 13.6 6.5 8.2 70 2.7 SW 35 54 19 29 1009.6 1009.4 5.4
19/08:30pm 13.5 6.9 8.4 71 2.6 SW 33 44 18 24 1009.6 1009.4 5.4
19/08:00pm 13.4 5.9 8.0 70 2.7 SW 37 50 20 27 1009.2 1009.0 5.4
19/07:30pm 13.4 5.5 8.0 70 2.7 SW 39 50 21 27 1008.9 1008.7 5.4
19/07:00pm 13.5 5.5 7.3 66 3.0 SW 39 52 21 28 1008.5 1008.3 5.2
19/06:30pm 14.0 6.1 7.8 66 3.1 SW 39 52 21 28 1008.4 1008.2 5.2
19/06:00pm 14.5 6.4 8.5 67 3.0 SW 41 63 22 34 1008.1 1007.9 5.2
19/05:54pm 13.5 5.5 7.5 67 3.0 SW 39 63 21 34 1008.0 1007.8 5.2
19/05:30pm 13.7 6.3 8.5 71 2.6 SW 37 52 20 28 1007.9 1007.7 5.2
19/05:00pm 11.9 5.2 7.4 74 2.2 WSW 32 52 17 28 1008.0 1007.8 5.2
19/04:56pm 11.9 5.0 7.2 73 2.3 W 33 52 18 28 1008.1 1007.9 5.2
19/04:30pm 13.7 6.6 9.4 75 2.2 W 37 48 20 26 1007.6 1007.4 4.6
19/04:00pm 12.7 5.9 9.3 80 1.7 WSW 35 56 19 30 1007.4 1007.2 4.6
19/03:30pm 11.3 3.7 7.6 78 1.8 W 37 56 20 30 1007.7 1007.5 2.8
19/03:00pm 12.4 6.4 8.5 77 1.9 WSW 30 52 16 28 1007.7 1007.5 2.2
19/02:43pm 12.8 7.1 8.3 74 2.2 W 28 48 15 26 1007.5 1007.3 2.0
19/02:30pm 13.3 7.4 9.2 76 2.1 W 30 43 16 23 1007.9 1007.7 2.0
19/02:07pm 11.5 4.7 7.0 74 2.2 WSW 32 54 17 29 1008.0 1007.8 2.0
19/02:00pm 11.8 5.9 7.3 74 2.2 WNW 28 43 15 23 1008.0 1007.8 1.8
19/01:41pm 11.9 5.1 7.0 72 2.4 WNW 32 50 17 27 1007.9 1007.7 0.0
19/01:30pm 13.3 6.4 7.1 66 3.0 WNW 33 48 18 26 1008.0 1007.8 0.0
19/01:00pm 13.9 7.0 7.2 64 3.3 W 33 50 18 27 1008.3 1008.1 0.0
19/12:30pm 14.3 6.7 5.9 57 4.0 WSW 35 48 19 26 1008.5 1008.3 0.0
19/12:00pm 13.2 5.9 7.4 68 2.8 WSW 35 54 19 29 1008.6 1008.4 0.0
19/11:33am 12.7 3.9 7.2 69 2.7 WSW 43 61 23 33 1008.8 1008.6 0.0
19/11:30am 13.1 4.2 7.5 69 2.7 WSW 44 61 24 33 1008.8 1008.6 0.0
19/11:21am 14.3 7.4 7.4 63 3.4 WSW 33 56 18 30 1008.8 1008.6 0.0
19/11:00am 14.3 7.5 7.8 65 3.2 WSW 33 46 18 25 1008.7 1008.5 0.0
19/10:30am 14.1 5.9 8.1 67 3.0 WSW 41 56 22 30 1008.7 1008.5 0.0
19/10:12am 14.1 7.5 7.9 66 3.1 WSW 32 54 17 29 1008.5 1008.3 0.0
19/10:00am 13.7 6.8 7.2 65 3.2 WSW 33 46 18 25 1008.4 1008.2 0.0
19/09:30am 13.2 6.4 6.8 65 3.1 WSW 32 44 17 24 1008.3 1008.1 0.0
19/09:02am 13.3 7.2 8.2 71 2.5 WSW 30 48 16 26 1008.2 1008.0 0.0
19/09:00am 13.0 6.8 7.9 71 2.5 W 30 43 16 23 1008.2 1008.0 4.6
19/08:30am 12.7 7.1 8.8 77 2.0 WSW 28 37 15 20 1008.3 1008.1 4.6

Other Formats:

Comma delimited format used in spreadsheet applications
http://www.bom.gov.au/fwo/IDV60801/IDV60801.94842.axf

JavaScript Object Notation format (JSON) in row-major order
http://www.bom.gov.au/fwo/IDV60801/IDV60801.94842.json